sensor_id;sensor_type;location;lat;lon;timestamp;P1;durP1;ratioP1;P2;durP2;ratioP2
61915;SDS011;47868;51.326;6.550;2023-01-08T00:01:22;1.90;;;1.80;;
61915;SDS011;47868;51.326;6.550;2023-01-08T00:03:48;2.10;;;2.00;;
61915;SDS011;47868;51.326;6.550;2023-01-08T00:06:15;2.28;;;1.90;;
61915;SDS011;47868;51.326;6.550;2023-01-08T00:08:42;2.20;;;1.95;;
61915;SDS011;47868;51.326;6.550;2023-01-08T00:11:09;2.53;;;2.15;;
61915;SDS011;47868;51.326;6.550;2023-01-08T00:13:34;2.40;;;1.95;;
61915;SDS011;47868;51.326;6.550;2023-01-08T00:16:04;1.88;;;1.70;;
61915;SDS011;47868;51.326;6.550;2023-01-08T00:18:31;2.63;;;1.90;;
61915;SDS011;47868;51.326;6.550;2023-01-08T00:20:57;2.13;;;1.83;;
61915;SDS011;47868;51.326;6.550;2023-01-08T00:23:23;1.92;;;1.55;;
61915;SDS011;47868;51.326;6.550;2023-01-08T00:25:48;1.95;;;1.80;;
61915;SDS011;47868;51.326;6.550;2023-01-08T00:28:14;2.05;;;1.85;;
61915;SDS011;47868;51.326;6.550;2023-01-08T00:30:40;2.40;;;1.85;;
61915;SDS011;47868;51.326;6.550;2023-01-08T00:33:06;2.72;;;1.98;;
61915;SDS011;47868;51.326;6.550;2023-01-08T00:35:32;3.10;;;1.80;;
61915;SDS011;47868;51.326;6.550;2023-01-08T00:37:58;3.08;;;1.92;;
61915;SDS011;47868;51.326;6.550;2023-01-08T00:40:23;2.00;;;1.80;;
61915;SDS011;47868;51.326;6.550;2023-01-08T00:42:49;2.63;;;1.98;;
61915;SDS011;47868;51.326;6.550;2023-01-08T00:45:15;3.40;;;1.70;;
61915;SDS011;47868;51.326;6.550;2023-01-08T00:47:40;2.97;;;1.95;;
61915;SDS011;47868;51.326;6.550;2023-01-08T00:50:06;2.95;;;1.90;;
61915;SDS011;47868;51.326;6.550;2023-01-08T00:52:32;2.25;;;2.05;;
61915;SDS011;47868;51.326;6.550;2023-01-08T00:54:57;3.88;;;2.13;;
61915;SDS011;47868;51.326;6.550;2023-01-08T00:57:23;2.38;;;2.10;;
61915;SDS011;47868;51.326;6.550;2023-01-08T00:59:48;2.67;;;2.20;;
61915;SDS011;47868;51.326;6.550;2023-01-08T01:02:14;3.97;;;2.17;;
61915;SDS011;47868;51.326;6.550;2023-01-08T01:04:40;2.58;;;2.38;;
61915;SDS011;47868;51.326;6.550;2023-01-08T01:07:05;3.35;;;2.50;;
61915;SDS011;47868;51.326;6.550;2023-01-08T01:09:31;3.42;;;2.53;;
61915;SDS011;47868;51.326;6.550;2023-01-08T01:11:56;4.57;;;2.65;;
61915;SDS011;47868;51.326;6.550;2023-01-08T01:14:22;3.40;;;2.60;;
61915;SDS011;47868;51.326;6.550;2023-01-08T01:16:48;2.47;;;2.22;;
61915;SDS011;47868;51.326;6.550;2023-01-08T01:19:14;3.22;;;2.20;;
61915;SDS011;47868;51.326;6.550;2023-01-08T01:21:40;2.95;;;2.22;;
61915;SDS011;47868;51.326;6.550;2023-01-08T01:24:06;2.55;;;2.10;;
61915;SDS011;47868;51.326;6.550;2023-01-08T01:26:33;3.50;;;2.10;;
61915;SDS011;47868;51.326;6.550;2023-01-08T01:28:59;2.63;;;2.42;;
61915;SDS011;47868;51.326;6.550;2023-01-08T01:31:26;4.30;;;2.30;;
61915;SDS011;47868;51.326;6.550;2023-01-08T01:33:52;3.50;;;2.20;;
61915;SDS011;47868;51.326;6.550;2023-01-08T01:36:19;2.70;;;2.45;;
61915;SDS011;47868;51.326;6.550;2023-01-08T01:38:50;3.45;;;2.50;;
61915;SDS011;47868;51.326;6.550;2023-01-08T01:43:51;4.85;;;2.40;;
61915;SDS011;47868;51.326;6.550;2023-01-08T01:48:50;3.00;;;2.38;;
61915;SDS011;47868;51.326;6.550;2023-01-08T01:51:19;6.70;;;3.00;;
61915;SDS011;47868;51.326;6.550;2023-01-08T01:53:45;2.70;;;2.30;;
61915;SDS011;47868;51.326;6.550;2023-01-08T01:56:10;5.03;;;2.40;;
61915;SDS011;47868;51.326;6.550;2023-01-08T01:58:36;6.75;;;2.67;;
61915;SDS011;47868;51.326;6.550;2023-01-08T02:01:05;3.42;;;2.30;;
61915;SDS011;47868;51.326;6.550;2023-01-08T02:03:34;4.55;;;2.33;;
61915;SDS011;47868;51.326;6.550;2023-01-08T02:14:35;5.15;;;2.10;;
61915;SDS011;47868;51.326;6.550;2023-01-08T02:17:11;5.38;;;2.20;;
61915;SDS011;47868;51.326;6.550;2023-01-08T02:19:44;4.82;;;3.00;;
61915;SDS011;47868;51.326;6.550;2023-01-08T02:27:22;3.55;;;2.50;;
61915;SDS011;47868;51.326;6.550;2023-01-08T02:29:52;5.78;;;2.45;;
61915;SDS011;47868;51.326;6.550;2023-01-08T02:32:26;3.67;;;2.90;;
61915;SDS011;47868;51.326;6.550;2023-01-08T02:34:53;4.65;;;2.45;;
61915;SDS011;47868;51.326;6.550;2023-01-08T02:37:19;3.15;;;2.33;;
61915;SDS011;47868;51.326;6.550;2023-01-08T02:42:44;3.58;;;2.85;;
61915;SDS011;47868;51.326;6.550;2023-01-08T02:47:46;4.47;;;2.33;;
61915;SDS011;47868;51.326;6.550;2023-01-08T02:50:25;4.28;;;2.75;;
61915;SDS011;47868;51.326;6.550;2023-01-08T02:55:40;4.65;;;2.80;;
61915;SDS011;47868;51.326;6.550;2023-01-08T02:58:10;4.55;;;2.65;;
61915;SDS011;47868;51.326;6.550;2023-01-08T03:00:36;4.22;;;2.50;;
61915;SDS011;47868;51.326;6.550;2023-01-08T03:03:14;6.82;;;2.70;;
61915;SDS011;47868;51.326;6.550;2023-01-08T03:06:03;5.45;;;2.75;;
61915;SDS011;47868;51.326;6.550;2023-01-08T03:08:36;2.97;;;2.42;;
61915;SDS011;47868;51.326;6.550;2023-01-08T03:16:03;3.17;;;2.40;;
61915;SDS011;47868;51.326;6.550;2023-01-08T03:18:34;5.50;;;2.63;;
61915;SDS011;47868;51.326;6.550;2023-01-08T03:21:03;3.25;;;2.75;;
61915;SDS011;47868;51.326;6.550;2023-01-08T03:23:31;4.47;;;2.70;;
61915;SDS011;47868;51.326;6.550;2023-01-08T03:25:59;4.25;;;2.45;;
61915;SDS011;47868;51.326;6.550;2023-01-08T03:28:28;3.63;;;2.58;;
61915;SDS011;47868;51.326;6.550;2023-01-08T03:30:58;2.88;;;2.30;;
61915;SDS011;47868;51.326;6.550;2023-01-08T03:33:25;3.78;;;2.58;;
61915;SDS011;47868;51.326;6.550;2023-01-08T03:35:54;4.30;;;2.60;;
61915;SDS011;47868;51.326;6.550;2023-01-08T03:38:26;2.95;;;2.20;;
61915;SDS011;47868;51.326;6.550;2023-01-08T03:41:01;4.28;;;2.60;;
61915;SDS011;47868;51.326;6.550;2023-01-08T03:43:30;2.83;;;2.50;;
61915;SDS011;47868;51.326;6.550;2023-01-08T03:46:00;4.28;;;2.83;;
61915;SDS011;47868;51.326;6.550;2023-01-08T03:48:29;3.47;;;2.45;;
61915;SDS011;47868;51.326;6.550;2023-01-08T03:50:57;2.97;;;2.40;;
61915;SDS011;47868;51.326;6.550;2023-01-08T03:53:23;4.78;;;2.80;;
61915;SDS011;47868;51.326;6.550;2023-01-08T03:55:48;7.13;;;2.90;;
61915;SDS011;47868;51.326;6.550;2023-01-08T03:58:14;7.00;;;3.00;;
61915;SDS011;47868;51.326;6.550;2023-01-08T04:00:40;3.75;;;2.67;;
61915;SDS011;47868;51.326;6.550;2023-01-08T04:03:05;4.43;;;2.53;;
61915;SDS011;47868;51.326;6.550;2023-01-08T04:05:31;4.50;;;2.65;;
61915;SDS011;47868;51.326;6.550;2023-01-08T04:07:56;2.58;;;2.38;;
61915;SDS011;47868;51.326;6.550;2023-01-08T04:10:23;3.38;;;2.47;;
61915;SDS011;47868;51.326;6.550;2023-01-08T04:12:49;5.53;;;2.42;;
61915;SDS011;47868;51.326;6.550;2023-01-08T04:15:15;2.63;;;2.30;;
61915;SDS011;47868;51.326;6.550;2023-01-08T04:17:41;3.22;;;2.40;;
61915;SDS011;47868;51.326;6.550;2023-01-08T04:20:06;2.42;;;2.13;;
61915;SDS011;47868;51.326;6.550;2023-01-08T04:22:33;3.15;;;2.40;;
61915;SDS011;47868;51.326;6.550;2023-01-08T04:24:58;3.47;;;2.10;;
61915;SDS011;47868;51.326;6.550;2023-01-08T04:27:24;2.83;;;2.03;;
61915;SDS011;47868;51.326;6.550;2023-01-08T04:29:50;2.40;;;2.17;;
61915;SDS011;47868;51.326;6.550;2023-01-08T04:32:15;2.72;;;2.20;;
61915;SDS011;47868;51.326;6.550;2023-01-08T04:34:41;2.38;;;2.00;;
61915;SDS011;47868;51.326;6.550;2023-01-08T04:37:06;2.65;;;2.42;;
61915;SDS011;47868;51.326;6.550;2023-01-08T04:39:32;2.28;;;1.75;;
61915;SDS011;47868;51.326;6.550;2023-01-08T04:41:58;4.28;;;2.15;;
61915;SDS011;47868;51.326;6.550;2023-01-08T04:44:23;2.30;;;2.10;;
61915;SDS011;47868;51.326;6.550;2023-01-08T04:46:49;2.53;;;2.13;;
61915;SDS011;47868;51.326;6.550;2023-01-08T04:49:14;3.58;;;2.00;;
61915;SDS011;47868;51.326;6.550;2023-01-08T04:51:40;2.88;;;1.90;;
61915;SDS011;47868;51.326;6.550;2023-01-08T04:54:06;4.43;;;2.13;;
61915;SDS011;47868;51.326;6.550;2023-01-08T04:56:31;4.85;;;2.17;;
61915;SDS011;47868;51.326;6.550;2023-01-08T04:58:57;3.42;;;1.80;;
61915;SDS011;47868;51.326;6.550;2023-01-08T05:01:24;4.47;;;1.90;;
61915;SDS011;47868;51.326;6.550;2023-01-08T05:03:58;2.35;;;1.63;;
61915;SDS011;47868;51.326;6.550;2023-01-08T05:06:26;2.20;;;1.50;;
61915;SDS011;47868;51.326;6.550;2023-01-08T05:08:53;1.48;;;1.30;;
61915;SDS011;47868;51.326;6.550;2023-01-08T05:11:19;1.50;;;1.10;;
61915;SDS011;47868;51.326;6.550;2023-01-08T05:13:48;2.05;;;1.50;;
61915;SDS011;47868;51.326;6.550;2023-01-08T05:16:15;3.22;;;1.30;;
61915;SDS011;47868;51.326;6.550;2023-01-08T05:18:41;2.15;;;1.23;;
61915;SDS011;47868;51.326;6.550;2023-01-08T05:21:07;2.60;;;1.40;;
61915;SDS011;47868;51.326;6.550;2023-01-08T05:23:32;2.70;;;1.30;;
61915;SDS011;47868;51.326;6.550;2023-01-08T05:25:59;1.70;;;1.40;;
61915;SDS011;47868;51.326;6.550;2023-01-08T05:28:25;1.17;;;1.10;;
61915;SDS011;47868;51.326;6.550;2023-01-08T05:30:51;3.50;;;1.20;;
61915;SDS011;47868;51.326;6.550;2023-01-08T05:33:17;4.75;;;1.48;;
61915;SDS011;47868;51.326;6.550;2023-01-08T05:35:43;1.73;;;1.35;;
61915;SDS011;47868;51.326;6.550;2023-01-08T05:38:09;1.38;;;1.23;;
61915;SDS011;47868;51.326;6.550;2023-01-08T05:40:34;4.03;;;1.52;;
61915;SDS011;47868;51.326;6.550;2023-01-08T05:43:00;2.10;;;1.15;;
61915;SDS011;47868;51.326;6.550;2023-01-08T05:45:26;1.40;;;1.30;;
61915;SDS011;47868;51.326;6.550;2023-01-08T05:47:52;3.65;;;1.30;;
61915;SDS011;47868;51.326;6.550;2023-01-08T05:50:18;2.55;;;1.40;;
61915;SDS011;47868;51.326;6.550;2023-01-08T05:52:44;1.30;;;1.20;;
61915;SDS011;47868;51.326;6.550;2023-01-08T05:55:09;3.45;;;1.30;;
61915;SDS011;47868;51.326;6.550;2023-01-08T05:57:35;2.30;;;1.35;;
61915;SDS011;47868;51.326;6.550;2023-01-08T06:00:03;2.00;;;1.20;;
61915;SDS011;47868;51.326;6.550;2023-01-08T06:02:29;3.60;;;1.67;;
61915;SDS011;47868;51.326;6.550;2023-01-08T06:04:55;2.47;;;1.40;;
61915;SDS011;47868;51.326;6.550;2023-01-08T06:07:20;3.90;;;1.23;;
61915;SDS011;47868;51.326;6.550;2023-01-08T06:09:46;2.42;;;1.48;;
61915;SDS011;47868;51.326;6.550;2023-01-08T06:12:11;1.98;;;1.17;;
61915;SDS011;47868;51.326;6.550;2023-01-08T06:14:37;3.47;;;1.65;;
61915;SDS011;47868;51.326;6.550;2023-01-08T06:17:02;1.50;;;1.25;;
61915;SDS011;47868;51.326;6.550;2023-01-08T06:19:28;3.22;;;1.52;;
61915;SDS011;47868;51.326;6.550;2023-01-08T06:21:53;1.95;;;1.27;;
61915;SDS011;47868;51.326;6.550;2023-01-08T06:24:20;5.97;;;1.55;;
61915;SDS011;47868;51.326;6.550;2023-01-08T06:26:45;1.55;;;1.13;;
61915;SDS011;47868;51.326;6.550;2023-01-08T06:29:11;5.50;;;1.42;;
61915;SDS011;47868;51.326;6.550;2023-01-08T06:31:36;2.90;;;1.50;;
61915;SDS011;47868;51.326;6.550;2023-01-08T06:34:02;2.25;;;1.20;;
61915;SDS011;47868;51.326;6.550;2023-01-08T06:36:28;1.95;;;1.27;;
61915;SDS011;47868;51.326;6.550;2023-01-08T06:38:53;4.40;;;1.73;;
61915;SDS011;47868;51.326;6.550;2023-01-08T06:41:19;3.85;;;1.60;;
61915;SDS011;47868;51.326;6.550;2023-01-08T06:43:45;3.20;;;1.70;;
61915;SDS011;47868;51.326;6.550;2023-01-08T06:46:11;4.85;;;1.60;;
61915;SDS011;47868;51.326;6.550;2023-01-08T06:48:37;2.95;;;1.60;;
61915;SDS011;47868;51.326;6.550;2023-01-08T06:51:03;3.20;;;1.65;;
61915;SDS011;47868;51.326;6.550;2023-01-08T06:53:29;3.78;;;1.52;;
61915;SDS011;47868;51.326;6.550;2023-01-08T06:55:55;3.45;;;1.75;;
61915;SDS011;47868;51.326;6.550;2023-01-08T06:58:22;2.78;;;1.48;;
61915;SDS011;47868;51.326;6.550;2023-01-08T07:00:48;1.98;;;1.10;;
61915;SDS011;47868;51.326;6.550;2023-01-08T07:03:14;3.22;;;1.45;;
61915;SDS011;47868;51.326;6.550;2023-01-08T07:05:40;3.03;;;1.50;;
61915;SDS011;47868;51.326;6.550;2023-01-08T07:08:08;2.40;;;1.50;;
61915;SDS011;47868;51.326;6.550;2023-01-08T07:10:35;4.13;;;1.92;;
61915;SDS011;47868;51.326;6.550;2023-01-08T07:13:01;3.25;;;1.33;;
61915;SDS011;47868;51.326;6.550;2023-01-08T07:15:27;2.17;;;1.30;;
61915;SDS011;47868;51.326;6.550;2023-01-08T07:17:52;3.05;;;1.17;;
61915;SDS011;47868;51.326;6.550;2023-01-08T07:20:18;4.88;;;1.45;;
61915;SDS011;47868;51.326;6.550;2023-01-08T07:22:43;3.83;;;1.58;;
61915;SDS011;47868;51.326;6.550;2023-01-08T07:25:09;4.43;;;1.30;;
61915;SDS011;47868;51.326;6.550;2023-01-08T07:27:34;4.55;;;1.52;;
61915;SDS011;47868;51.326;6.550;2023-01-08T07:30:00;3.55;;;1.50;;
61915;SDS011;47868;51.326;6.550;2023-01-08T07:32:26;3.70;;;1.50;;
61915;SDS011;47868;51.326;6.550;2023-01-08T07:34:51;1.90;;;1.55;;
61915;SDS011;47868;51.326;6.550;2023-01-08T07:37:18;2.40;;;1.38;;
61915;SDS011;47868;51.326;6.550;2023-01-08T07:39:44;4.82;;;1.45;;
61915;SDS011;47868;51.326;6.550;2023-01-08T07:42:09;4.95;;;2.10;;
61915;SDS011;47868;51.326;6.550;2023-01-08T07:44:35;4.80;;;1.30;;
61915;SDS011;47868;51.326;6.550;2023-01-08T07:47:00;3.08;;;1.45;;
61915;SDS011;47868;51.326;6.550;2023-01-08T07:49:26;4.88;;;1.38;;
61915;SDS011;47868;51.326;6.550;2023-01-08T07:51:52;4.53;;;1.60;;
61915;SDS011;47868;51.326;6.550;2023-01-08T07:54:17;3.38;;;1.40;;
61915;SDS011;47868;51.326;6.550;2023-01-08T07:56:43;5.38;;;1.58;;
61915;SDS011;47868;51.326;6.550;2023-01-08T07:59:08;3.60;;;1.45;;
61915;SDS011;47868;51.326;6.550;2023-01-08T08:01:34;3.88;;;1.40;;
61915;SDS011;47868;51.326;6.550;2023-01-08T08:03:59;3.15;;;1.55;;
61915;SDS011;47868;51.326;6.550;2023-01-08T08:06:25;3.83;;;1.40;;
61915;SDS011;47868;51.326;6.550;2023-01-08T08:08:50;5.97;;;1.63;;
61915;SDS011;47868;51.326;6.550;2023-01-08T08:11:16;8.65;;;1.67;;
61915;SDS011;47868;51.326;6.550;2023-01-08T08:13:42;3.22;;;1.40;;
61915;SDS011;47868;51.326;6.550;2023-01-08T08:16:09;3.70;;;1.77;;
61915;SDS011;47868;51.326;6.550;2023-01-08T08:18:36;2.75;;;1.40;;
61915;SDS011;47868;51.326;6.550;2023-01-08T08:21:02;3.15;;;1.60;;
61915;SDS011;47868;51.326;6.550;2023-01-08T08:23:28;7.85;;;4.53;;
61915;SDS011;47868;51.326;6.550;2023-01-08T08:25:53;3.78;;;2.20;;
61915;SDS011;47868;51.326;6.550;2023-01-08T08:28:19;2.92;;;1.60;;
61915;SDS011;47868;51.326;6.550;2023-01-08T08:30:45;2.78;;;1.67;;
61915;SDS011;47868;51.326;6.550;2023-01-08T08:33:10;5.75;;;1.73;;
61915;SDS011;47868;51.326;6.550;2023-01-08T08:35:37;4.45;;;1.60;;
61915;SDS011;47868;51.326;6.550;2023-01-08T08:38:04;2.88;;;1.20;;
61915;SDS011;47868;51.326;6.550;2023-01-08T08:40:29;1.98;;;1.50;;
61915;SDS011;47868;51.326;6.550;2023-01-08T08:42:56;5.22;;;1.60;;
61915;SDS011;47868;51.326;6.550;2023-01-08T08:45:26;3.97;;;1.70;;
61915;SDS011;47868;51.326;6.550;2023-01-08T08:47:52;5.07;;;1.77;;
61915;SDS011;47868;51.326;6.550;2023-01-08T08:50:18;7.80;;;1.75;;
61915;SDS011;47868;51.326;6.550;2023-01-08T08:52:45;8.93;;;1.80;;
61915;SDS011;47868;51.326;6.550;2023-01-08T08:55:12;4.35;;;1.80;;
61915;SDS011;47868;51.326;6.550;2023-01-08T08:57:41;4.75;;;2.20;;
61915;SDS011;47868;51.326;6.550;2023-01-08T09:00:10;7.72;;;2.22;;
61915;SDS011;47868;51.326;6.550;2023-01-08T09:02:37;5.43;;;2.17;;
61915;SDS011;47868;51.326;6.550;2023-01-08T09:05:03;9.15;;;1.98;;
61915;SDS011;47868;51.326;6.550;2023-01-08T09:07:29;6.72;;;1.80;;
61915;SDS011;47868;51.326;6.550;2023-01-08T09:09:54;4.63;;;1.80;;
61915;SDS011;47868;51.326;6.550;2023-01-08T09:12:20;4.93;;;1.90;;
61915;SDS011;47868;51.326;6.550;2023-01-08T09:14:46;3.45;;;1.77;;
61915;SDS011;47868;51.326;6.550;2023-01-08T09:17:14;4.50;;;2.05;;
61915;SDS011;47868;51.326;6.550;2023-01-08T09:19:40;6.10;;;1.85;;
61915;SDS011;47868;51.326;6.550;2023-01-08T09:22:05;6.63;;;2.03;;
61915;SDS011;47868;51.326;6.550;2023-01-08T09:24:31;6.63;;;2.70;;
61915;SDS011;47868;51.326;6.550;2023-01-08T09:26:57;8.57;;;2.15;;
61915;SDS011;47868;51.326;6.550;2023-01-08T09:29:23;5.93;;;2.50;;
61915;SDS011;47868;51.326;6.550;2023-01-08T09:31:48;6.70;;;2.35;;
61915;SDS011;47868;51.326;6.550;2023-01-08T09:34:14;6.85;;;2.30;;
61915;SDS011;47868;51.326;6.550;2023-01-08T09:36:40;4.82;;;2.33;;
61915;SDS011;47868;51.326;6.550;2023-01-08T09:39:05;7.53;;;2.03;;
61915;SDS011;47868;51.326;6.550;2023-01-08T09:41:32;10.02;;;2.47;;
61915;SDS011;47868;51.326;6.550;2023-01-08T09:44:00;6.63;;;2.10;;
61915;SDS011;47868;51.326;6.550;2023-01-08T09:46:28;5.35;;;2.03;;
61915;SDS011;47868;51.326;6.550;2023-01-08T09:48:56;6.00;;;2.38;;
61915;SDS011;47868;51.326;6.550;2023-01-08T09:51:26;8.77;;;2.25;;
61915;SDS011;47868;51.326;6.550;2023-01-08T09:54:03;6.72;;;2.83;;
61915;SDS011;47868;51.326;6.550;2023-01-08T09:56:31;4.55;;;2.30;;
61915;SDS011;47868;51.326;6.550;2023-01-08T09:58:59;8.30;;;3.15;;
61915;SDS011;47868;51.326;6.550;2023-01-08T10:01:28;11.50;;;4.30;;
61915;SDS011;47868;51.326;6.550;2023-01-08T10:04:05;7.78;;;2.60;;
61915;SDS011;47868;51.326;6.550;2023-01-08T10:06:35;5.90;;;2.38;;
61915;SDS011;47868;51.326;6.550;2023-01-08T10:09:00;8.27;;;3.22;;
61915;SDS011;47868;51.326;6.550;2023-01-08T10:11:27;7.43;;;2.70;;
61915;SDS011;47868;51.326;6.550;2023-01-08T10:14:01;7.75;;;2.28;;
61915;SDS011;47868;51.326;6.550;2023-01-08T10:16:32;4.00;;;2.03;;
61915;SDS011;47868;51.326;6.550;2023-01-08T10:19:02;4.63;;;1.92;;
61915;SDS011;47868;51.326;6.550;2023-01-08T10:21:35;7.47;;;1.90;;
61915;SDS011;47868;51.326;6.550;2023-01-08T10:24:03;6.22;;;2.08;;
61915;SDS011;47868;51.326;6.550;2023-01-08T10:26:33;8.85;;;2.20;;
61915;SDS011;47868;51.326;6.550;2023-01-08T10:29:33;10.15;;;2.58;;
61915;SDS011;47868;51.326;6.550;2023-01-08T10:31:55;6.32;;;2.05;;
61915;SDS011;47868;51.326;6.550;2023-01-08T10:34:31;4.78;;;2.30;;
61915;SDS011;47868;51.326;6.550;2023-01-08T10:37:17;3.90;;;1.75;;
61915;SDS011;47868;51.326;6.550;2023-01-08T10:39:48;5.18;;;1.92;;
61915;SDS011;47868;51.326;6.550;2023-01-08T10:42:16;8.02;;;2.17;;
61915;SDS011;47868;51.326;6.550;2023-01-08T10:44:48;5.55;;;1.95;;
61915;SDS011;47868;51.326;6.550;2023-01-08T10:47:16;7.70;;;1.75;;
61915;SDS011;47868;51.326;6.550;2023-01-08T10:49:42;6.53;;;2.00;;
61915;SDS011;47868;51.326;6.550;2023-01-08T10:52:26;3.85;;;1.92;;
61915;SDS011;47868;51.326;6.550;2023-01-08T10:54:52;6.03;;;1.80;;
61915;SDS011;47868;51.326;6.550;2023-01-08T10:57:19;5.05;;;1.90;;
61915;SDS011;47868;51.326;6.550;2023-01-08T10:59:50;6.03;;;1.88;;
61915;SDS011;47868;51.326;6.550;2023-01-08T11:02:20;7.38;;;2.00;;
61915;SDS011;47868;51.326;6.550;2023-01-08T11:04:49;7.43;;;1.92;;
61915;SDS011;47868;51.326;6.550;2023-01-08T11:07:18;5.68;;;2.15;;
61915;SDS011;47868;51.326;6.550;2023-01-08T11:09:46;6.00;;;1.70;;
61915;SDS011;47868;51.326;6.550;2023-01-08T11:18:11;2.65;;;1.52;;
61915;SDS011;47868;51.326;6.550;2023-01-08T11:20:45;6.72;;;1.67;;
61915;SDS011;47868;51.326;6.550;2023-01-08T11:25:50;6.30;;;1.83;;
61915;SDS011;47868;51.326;6.550;2023-01-08T11:28:51;6.43;;;1.90;;
61915;SDS011;47868;51.326;6.550;2023-01-08T11:31:21;3.80;;;1.80;;
61915;SDS011;47868;51.326;6.550;2023-01-08T11:34:21;5.65;;;1.85;;
61915;SDS011;47868;51.326;6.550;2023-01-08T11:36:53;6.22;;;1.73;;
61915;SDS011;47868;51.326;6.550;2023-01-08T11:39:34;5.97;;;2.20;;
61915;SDS011;47868;51.326;6.550;2023-01-08T11:45:05;3.58;;;1.77;;
61915;SDS011;47868;51.326;6.550;2023-01-08T11:47:56;5.03;;;2.10;;
61915;SDS011;47868;51.326;6.550;2023-01-08T11:53:31;2.72;;;1.58;;
61915;SDS011;47868;51.326;6.550;2023-01-08T12:14:35;1.77;;;1.10;;
61915;SDS011;47868;51.326;6.550;2023-01-08T12:19:57;2.42;;;1.13;;
61915;SDS011;47868;51.326;6.550;2023-01-08T12:33:47;2.65;;;1.75;;
61915;SDS011;47868;51.326;6.550;2023-01-08T12:36:23;4.38;;;1.45;;
61915;SDS011;47868;51.326;6.550;2023-01-08T12:39:03;1.25;;;1.15;;
61915;SDS011;47868;51.326;6.550;2023-01-08T12:41:34;1.30;;;1.20;;
61915;SDS011;47868;51.326;6.550;2023-01-08T12:44:04;3.92;;;1.50;;
61915;SDS011;47868;51.326;6.550;2023-01-08T12:46:34;2.13;;;1.25;;
61915;SDS011;47868;51.326;6.550;2023-01-08T12:49:02;2.45;;;1.55;;
61915;SDS011;47868;51.326;6.550;2023-01-08T12:54:46;1.65;;;1.35;;
61915;SDS011;47868;51.326;6.550;2023-01-08T12:59:46;1.38;;;1.27;;
61915;SDS011;47868;51.326;6.550;2023-01-08T13:07:43;1.63;;;1.10;;
61915;SDS011;47868;51.326;6.550;2023-01-08T13:10:22;1.27;;;1.10;;
61915;SDS011;47868;51.326;6.550;2023-01-08T13:13:05;2.67;;;1.17;;
61915;SDS011;47868;51.326;6.550;2023-01-08T13:15:32;2.20;;;1.00;;
61915;SDS011;47868;51.326;6.550;2023-01-08T13:18:14;2.67;;;1.40;;
61915;SDS011;47868;51.326;6.550;2023-01-08T13:20:42;2.25;;;1.27;;
61915;SDS011;47868;51.326;6.550;2023-01-08T13:23:25;2.13;;;1.40;;
61915;SDS011;47868;51.326;6.550;2023-01-08T13:25:58;1.52;;;1.08;;
61915;SDS011;47868;51.326;6.550;2023-01-08T13:28:26;1.63;;;1.30;;
61915;SDS011;47868;51.326;6.550;2023-01-08T13:31:05;1.88;;;1.08;;
61915;SDS011;47868;51.326;6.550;2023-01-08T13:38:37;1.38;;;1.10;;
61915;SDS011;47868;51.326;6.550;2023-01-08T13:41:04;3.42;;;1.35;;
61915;SDS011;47868;51.326;6.550;2023-01-08T13:43:30;2.08;;;1.20;;
61915;SDS011;47868;51.326;6.550;2023-01-08T13:46:17;2.25;;;1.17;;
61915;SDS011;47868;51.326;6.550;2023-01-08T13:53:56;3.72;;;1.23;;
61915;SDS011;47868;51.326;6.550;2023-01-08T13:56:30;4.47;;;1.48;;
61915;SDS011;47868;51.326;6.550;2023-01-08T13:58:56;1.48;;;1.38;;
61915;SDS011;47868;51.326;6.550;2023-01-08T14:01:21;3.15;;;1.27;;
61915;SDS011;47868;51.326;6.550;2023-01-08T14:03:47;3.60;;;1.40;;
61915;SDS011;47868;51.326;6.550;2023-01-08T14:06:23;3.45;;;1.10;;
61915;SDS011;47868;51.326;6.550;2023-01-08T14:13:54;6.90;;;1.38;;
61915;SDS011;47868;51.326;6.550;2023-01-08T14:16:21;5.20;;;1.50;;
61915;SDS011;47868;51.326;6.550;2023-01-08T14:18:47;1.75;;;1.20;;
61915;SDS011;47868;51.326;6.550;2023-01-08T14:21:15;1.35;;;1.10;;
61915;SDS011;47868;51.326;6.550;2023-01-08T14:23:46;3.28;;;1.17;;
61915;SDS011;47868;51.326;6.550;2023-01-08T14:26:20;1.95;;;1.17;;
61915;SDS011;47868;51.326;6.550;2023-01-08T14:28:54;1.52;;;1.30;;
61915;SDS011;47868;51.326;6.550;2023-01-08T14:31:21;2.83;;;1.25;;
61915;SDS011;47868;51.326;6.550;2023-01-08T14:33:51;4.05;;;1.73;;
61915;SDS011;47868;51.326;6.550;2023-01-08T14:36:18;2.95;;;1.23;;
61915;SDS011;47868;51.326;6.550;2023-01-08T14:38:45;1.80;;;1.42;;
61915;SDS011;47868;51.326;6.550;2023-01-08T14:41:14;2.00;;;1.10;;
61915;SDS011;47868;51.326;6.550;2023-01-08T14:43:49;1.67;;;1.10;;
61915;SDS011;47868;51.326;6.550;2023-01-08T14:46:23;2.15;;;1.17;;
61915;SDS011;47868;51.326;6.550;2023-01-08T14:48:51;2.42;;;1.00;;
61915;SDS011;47868;51.326;6.550;2023-01-08T14:51:21;0.98;;;0.90;;
61915;SDS011;47868;51.326;6.550;2023-01-08T14:56:31;2.40;;;1.00;;
61915;SDS011;47868;51.326;6.550;2023-01-08T14:58:59;1.73;;;1.33;;
61915;SDS011;47868;51.326;6.550;2023-01-08T15:01:30;2.92;;;1.40;;
61915;SDS011;47868;51.326;6.550;2023-01-08T15:07:03;1.38;;;1.15;;
61915;SDS011;47868;51.326;6.550;2023-01-08T15:09:40;1.63;;;0.95;;
61915;SDS011;47868;51.326;6.550;2023-01-08T15:12:06;4.75;;;1.50;;
61915;SDS011;47868;51.326;6.550;2023-01-08T15:14:47;1.58;;;1.20;;
61915;SDS011;47868;51.326;6.550;2023-01-08T15:17:16;2.17;;;1.48;;
61915;SDS011;47868;51.326;6.550;2023-01-08T15:19:48;2.38;;;1.10;;
61915;SDS011;47868;51.326;6.550;2023-01-08T15:22:19;2.35;;;1.58;;
61915;SDS011;47868;51.326;6.550;2023-01-08T15:27:23;4.72;;;1.58;;
61915;SDS011;47868;51.326;6.550;2023-01-08T15:29:50;3.35;;;1.80;;
61915;SDS011;47868;51.326;6.550;2023-01-08T15:32:26;3.97;;;1.73;;
61915;SDS011;47868;51.326;6.550;2023-01-08T15:34:54;2.63;;;1.40;;
61915;SDS011;47868;51.326;6.550;2023-01-08T15:37:19;4.20;;;1.70;;
61915;SDS011;47868;51.326;6.550;2023-01-08T15:39:45;3.28;;;1.50;;
61915;SDS011;47868;51.326;6.550;2023-01-08T15:45:01;3.00;;;1.73;;
61915;SDS011;47868;51.326;6.550;2023-01-08T15:47:28;3.25;;;1.50;;
61915;SDS011;47868;51.326;6.550;2023-01-08T15:49:53;1.95;;;1.52;;
61915;SDS011;47868;51.326;6.550;2023-01-08T15:52:23;5.80;;;1.63;;
61915;SDS011;47868;51.326;6.550;2023-01-08T15:54:53;1.67;;;1.58;;
61915;SDS011;47868;51.326;6.550;2023-01-08T15:57:20;1.83;;;1.58;;
61915;SDS011;47868;51.326;6.550;2023-01-08T15:59:46;2.80;;;1.70;;
61915;SDS011;47868;51.326;6.550;2023-01-08T16:02:11;2.47;;;1.48;;
61915;SDS011;47868;51.326;6.550;2023-01-08T16:04:37;3.20;;;1.50;;
61915;SDS011;47868;51.326;6.550;2023-01-08T16:07:03;3.67;;;1.30;;
61915;SDS011;47868;51.326;6.550;2023-01-08T16:09:28;2.33;;;1.70;;
61915;SDS011;47868;51.326;6.550;2023-01-08T16:11:54;3.33;;;1.60;;
61915;SDS011;47868;51.326;6.550;2023-01-08T16:14:19;2.00;;;1.27;;
61915;SDS011;47868;51.326;6.550;2023-01-08T16:16:45;2.55;;;1.60;;
61915;SDS011;47868;51.326;6.550;2023-01-08T16:19:10;3.97;;;1.88;;
61915;SDS011;47868;51.326;6.550;2023-01-08T16:21:36;2.60;;;1.52;;
61915;SDS011;47868;51.326;6.550;2023-01-08T16:24:02;2.53;;;1.60;;
61915;SDS011;47868;51.326;6.550;2023-01-08T16:26:28;2.38;;;1.80;;
61915;SDS011;47868;51.326;6.550;2023-01-08T16:28:54;2.38;;;1.60;;
61915;SDS011;47868;51.326;6.550;2023-01-08T16:31:19;2.83;;;1.60;;
61915;SDS011;47868;51.326;6.550;2023-01-08T16:33:45;6.10;;;1.90;;
61915;SDS011;47868;51.326;6.550;2023-01-08T16:36:10;3.45;;;2.08;;
61915;SDS011;47868;51.326;6.550;2023-01-08T16:38:36;3.83;;;1.95;;
61915;SDS011;47868;51.326;6.550;2023-01-08T16:41:03;4.38;;;1.80;;
61915;SDS011;47868;51.326;6.550;2023-01-08T16:43:29;4.28;;;2.20;;
61915;SDS011;47868;51.326;6.550;2023-01-08T16:45:55;4.15;;;1.98;;
61915;SDS011;47868;51.326;6.550;2023-01-08T16:48:21;3.40;;;1.98;;
61915;SDS011;47868;51.326;6.550;2023-01-08T16:50:47;2.90;;;1.50;;